createdAt,value
2022-09-26T00:01:24.008Z,100065.41
2022-09-26T00:03:53.892Z,100061.94
2022-09-26T00:06:21.930Z,100059.50
2022-09-26T00:08:50.040Z,100055.84
2022-09-26T00:11:25.519Z,100057.81
2022-09-26T00:13:54.178Z,100059.03
2022-09-26T00:16:21.331Z,100055.66
2022-09-26T00:18:52.776Z,100045.00
2022-09-26T00:21:20.299Z,100047.78
2022-09-26T00:23:47.068Z,100056.19
2022-09-26T00:26:14.895Z,100051.19
2022-09-26T00:28:41.679Z,100053.16
2022-09-26T00:31:10.995Z,100054.97
2022-09-26T00:33:37.890Z,100056.97
2022-09-26T00:36:05.439Z,100049.78
2022-09-26T00:38:32.028Z,100048.41
2022-09-26T00:40:58.873Z,100043.41
2022-09-26T00:43:29.677Z,100034.78
2022-09-26T00:46:00.430Z,100040.19
2022-09-26T00:48:27.713Z,100038.41
2022-09-26T00:50:54.547Z,100032.69
2022-09-26T00:53:27.154Z,100034.25
2022-09-26T00:55:56.918Z,100035.47
2022-09-26T00:58:34.030Z,100034.13
2022-09-26T01:01:00.953Z,100026.50
2022-09-26T01:03:29.209Z,100025.66
2022-09-26T01:05:56.259Z,100026.63
2022-09-26T01:08:28.275Z,100020.78
2022-09-26T01:10:55.499Z,100019.22
2022-09-26T01:13:22.177Z,100025.50
2022-09-26T01:15:49.365Z,100027.47
2022-09-26T01:18:15.977Z,100017.03
2022-09-26T01:20:57.280Z,100018.13
2022-09-26T01:23:46.908Z,100014.38
2022-09-26T01:26:25.719Z,100002.38
2022-09-26T01:29:02.193Z,100004.28
2022-09-26T01:31:35.562Z,99997.31
2022-09-26T01:34:12.671Z,100002.78
2022-09-26T01:37:01.675Z,99995.09
2022-09-26T01:39:51.790Z,99995.09
2022-09-26T01:42:27.947Z,99994.50
2022-09-26T01:45:05.896Z,99998.09
2022-09-26T01:48:18.779Z,99995.78
2022-09-26T01:50:47.328Z,99987.97
2022-09-26T01:53:27.143Z,99993.09
2022-09-26T01:56:02.164Z,99987.97
2022-09-26T01:58:33.594Z,99986.31
2022-09-26T02:01:04.858Z,99982.69
2022-09-26T02:03:37.100Z,99981.19
2022-09-26T02:06:17.083Z,99984.81
2022-09-26T02:08:49.014Z,99980.47
2022-09-26T02:11:17.244Z,99981.50
2022-09-26T02:14:11.868Z,99978.91
2022-09-26T02:16:48.014Z,99979.81
2022-09-26T02:19:26.486Z,99976.34
2022-09-26T02:21:53.340Z,99971.13
2022-09-26T02:24:20.106Z,99962.38
2022-09-26T02:26:46.714Z,99957.13
2022-09-26T02:29:13.966Z,99954.38
2022-09-26T02:31:52.047Z,99951.97
2022-09-26T02:34:18.675Z,99955.44
2022-09-26T02:36:46.467Z,99948.53
2022-09-26T02:39:13.653Z,99946.97
2022-09-26T02:41:55.379Z,99949.75
2022-09-26T02:44:42.193Z,99940.31
2022-09-26T02:47:27.618Z,99940.41
2022-09-26T02:50:08.887Z,99941.56
2022-09-26T02:52:51.558Z,99937.13
2022-09-26T02:55:27.788Z,99946.06
2022-09-26T02:58:16.688Z,99943.44
2022-09-26T03:01:22.511Z,99944.47
2022-09-26T03:03:53.003Z,99934.94
2022-09-26T03:06:24.562Z,99940.13
2022-09-26T03:08:51.576Z,99933.97
2022-09-26T03:11:21.972Z,99934.34
2022-09-26T03:13:50.982Z,99926.50
2022-09-26T03:16:18.127Z,99922.03
2022-09-26T03:19:26.861Z,99919.56
2022-09-26T03:21:54.298Z,99923.22
2022-09-26T03:24:20.997Z,99918.00
2022-09-26T03:26:47.968Z,99919.81
2022-09-26T03:29:15.111Z,99916.31
2022-09-26T03:31:41.818Z,99917.22
2022-09-26T03:34:08.491Z,99913.72
2022-09-26T03:36:35.117Z,99900.59
2022-09-26T03:39:01.871Z,99907.41
2022-09-26T03:41:28.485Z,99907.50
2022-09-26T03:43:56.812Z,99897.81
2022-09-26T03:46:24.369Z,99888.09
2022-09-26T03:48:51.070Z,99892.41
2022-09-26T03:51:18.023Z,99892.28
2022-09-26T03:53:47.269Z,99894.88
2022-09-26T03:56:15.994Z,99894.81
2022-09-26T03:58:42.833Z,99887.88
2022-09-26T04:01:12.579Z,99898.38
2022-09-26T04:03:40.732Z,99900.91
2022-09-26T04:06:09.274Z,99902.59
2022-09-26T04:08:40.646Z,99902.59
2022-09-26T04:11:09.269Z,99906.03
2022-09-26T04:13:51.252Z,99899.75
2022-09-26T04:16:20.181Z,99895.25
2022-09-26T04:18:47.109Z,99890.81
2022-09-26T04:21:14.225Z,99884.63
2022-09-26T04:23:42.171Z,99890.66
2022-09-26T04:26:10.789Z,99888.56
2022-09-26T04:28:38.299Z,99886.75
2022-09-26T04:31:06.577Z,99876.31
2022-09-26T04:33:33.700Z,99881.44
2022-09-26T04:36:02.546Z,99877.88
2022-09-26T04:38:32.549Z,99873.44
2022-09-26T04:41:11.176Z,99874.25
2022-09-26T04:43:38.561Z,99861.09
2022-09-26T04:46:10.083Z,99866.25
2022-09-26T04:48:36.799Z,99865.31
2022-09-26T04:51:07.575Z,99866.81
2022-09-26T04:53:35.086Z,99860.75
2022-09-26T04:56:01.959Z,99865.19
2022-09-26T04:58:29.568Z,99858.09
2022-09-26T05:00:56.453Z,99863.94
2022-09-26T05:03:23.195Z,99865.66
2022-09-26T05:05:50.457Z,99870.94
2022-09-26T05:08:17.332Z,99863.09
2022-09-26T05:10:44.183Z,99863.94
2022-09-26T05:13:10.890Z,99866.59
2022-09-26T05:15:39.923Z,99863.03
2022-09-26T05:18:07.855Z,99869.81
2022-09-26T05:20:35.427Z,99854.09
2022-09-26T05:23:02.232Z,99857.66
2022-09-26T05:25:49.990Z,99849.88
2022-09-26T05:28:16.624Z,99858.59
2022-09-26T05:30:43.521Z,99853.97
2022-09-26T05:33:13.072Z,99852.16
2022-09-26T05:35:40.509Z,99851.13
2022-09-26T05:38:07.157Z,99848.34
2022-09-26T05:40:52.462Z,99850.47
2022-09-26T05:43:19.033Z,99848.94
2022-09-26T05:45:49.296Z,99850.75
2022-09-26T05:48:18.937Z,99845.44
2022-09-26T05:50:45.550Z,99845.19
2022-09-26T05:53:12.278Z,99851.38
2022-09-26T05:55:38.906Z,99844.84
2022-09-26T05:58:10.027Z,99845.81
2022-09-26T06:00:38.658Z,99840.50
2022-09-26T06:03:05.382Z,99841.34
2022-09-26T06:05:33.660Z,99846.81
2022-09-26T06:08:01.791Z,99846.66
2022-09-26T06:10:28.510Z,99833.44
2022-09-26T06:12:55.426Z,99840.47
2022-09-26T06:15:23.078Z,99834.28
2022-09-26T06:17:57.506Z,99840.28
2022-09-26T06:20:25.165Z,99834.09
2022-09-26T06:22:52.722Z,99837.66
2022-09-26T06:25:19.320Z,99834.03
2022-09-26T06:27:45.942Z,99832.22
2022-09-26T06:30:12.637Z,99827.91
2022-09-26T06:32:39.353Z,99830.44
2022-09-26T06:35:06.922Z,99823.34
2022-09-26T06:37:34.044Z,99824.47
2022-09-26T06:40:00.910Z,99821.78
2022-09-26T06:42:27.505Z,99823.56
2022-09-26T06:44:54.092Z,99819.00
2022-09-26T06:47:20.686Z,99819.59
2022-09-26T06:49:49.135Z,99828.47
2022-09-26T06:52:15.786Z,99829.09
2022-09-26T06:54:42.394Z,99822.00
2022-09-26T06:57:14.716Z,99813.63
2022-09-26T06:59:41.787Z,99811.84
2022-09-26T07:02:09.179Z,99807.78
2022-09-26T07:04:35.979Z,99813.97
2022-09-26T07:07:02.650Z,99812.50
2022-09-26T07:09:29.259Z,99812.50
2022-09-26T07:12:13.988Z,99805.34
2022-09-26T07:14:42.371Z,99816.88
2022-09-26T07:17:14.464Z,99807.25
2022-09-26T07:19:41.748Z,99808.16
2022-09-26T07:22:09.466Z,99806.44
2022-09-26T07:24:36.057Z,99803.31
2022-09-26T07:27:03.116Z,99793.38
2022-09-26T07:29:29.704Z,99788.88
2022-09-26T07:31:56.565Z,99787.38
2022-09-26T07:34:25.038Z,99792.25
2022-09-26T07:36:52.008Z,99786.53
2022-09-26T07:39:18.903Z,99788.19
2022-09-26T07:41:46.062Z,99778.09
2022-09-26T07:47:18.886Z,99783.94
2022-09-26T07:50:04.300Z,99784.91
2022-09-26T07:52:30.931Z,99788.72
2022-09-26T07:54:57.579Z,99790.91
2022-09-26T07:57:24.537Z,99787.59
2022-09-26T07:59:51.926Z,99780.13
2022-09-26T08:02:23.050Z,99783.03
2022-09-26T08:04:49.842Z,99771.25
2022-09-26T08:07:16.524Z,99768.41
2022-09-26T08:09:43.157Z,99768.53
2022-09-26T08:12:10.018Z,99771.50
2022-09-26T08:14:37.531Z,99772.66
2022-09-26T08:17:04.198Z,99772.16
2022-09-26T08:19:30.848Z,99766.88
2022-09-26T08:21:59.143Z,99769.38
2022-09-26T08:24:25.748Z,99766.63
2022-09-26T08:26:54.765Z,99767.66
2022-09-26T08:29:23.535Z,99770.16
2022-09-26T08:31:51.410Z,99758.50
2022-09-26T08:34:21.401Z,99772.88
2022-09-26T08:36:54.803Z,99771.28
2022-09-26T08:39:21.988Z,99765.72
2022-09-26T08:42:28.706Z,99763.75
2022-09-26T08:45:26.533Z,99767.84
2022-09-26T08:47:59.768Z,99760.19
2022-09-26T08:50:39.390Z,99763.34
2022-09-26T08:53:10.789Z,99752.22
2022-09-26T08:55:42.565Z,99750.09
2022-09-26T08:58:18.940Z,99745.97
2022-09-26T09:00:51.389Z,99740.47
2022-09-26T09:03:23.757Z,99733.88
2022-09-26T09:05:54.698Z,99740.19
2022-09-26T09:08:24.045Z,99734.03
2022-09-26T09:11:12.341Z,99726.81
2022-09-26T09:13:52.441Z,99728.53
2022-09-26T09:16:37.853Z,99734.13
2022-09-26T09:19:22.645Z,99721.69
2022-09-26T09:21:59.140Z,99721.81
2022-09-26T09:24:44.969Z,99719.06
2022-09-26T09:28:04.040Z,99705.81
2022-09-26T09:30:41.987Z,99713.53
2022-09-26T09:33:17.291Z,99712.44
2022-09-26T09:35:48.235Z,99709.72
2022-09-26T09:38:18.266Z,99704.84
2022-09-26T09:40:51.440Z,99711.88
2022-09-26T09:43:36.809Z,99707.63
2022-09-26T09:46:05.892Z,99708.22
2022-09-26T09:48:33.192Z,99705.91
2022-09-26T09:51:15.286Z,99698.00
2022-09-26T09:54:23.713Z,99694.53
2022-09-26T09:57:10.935Z,99682.13
2022-09-26T09:59:56.242Z,99677.81
2022-09-26T10:02:37.433Z,99683.81
2022-09-26T10:05:24.073Z,99677.72
2022-09-26T10:07:57.991Z,99677.63
2022-09-26T10:11:02.125Z,99668.31
2022-09-26T10:13:32.595Z,99679.72
2022-09-26T10:16:01.985Z,99667.19
2022-09-26T10:18:28.615Z,99672.44
2022-09-26T10:21:00.227Z,99659.47
2022-09-26T10:23:31.390Z,99669.88
2022-09-26T10:26:03.703Z,99658.72
2022-09-26T10:28:31.880Z,99648.03
2022-09-26T10:31:04.228Z,99651.59
2022-09-26T10:33:35.976Z,99647.78
2022-09-26T10:36:19.759Z,99658.34
2022-09-26T10:39:16.120Z,99656.09
2022-09-26T10:41:45.127Z,99652.06
2022-09-26T10:44:23.636Z,99658.38
2022-09-26T10:46:52.578Z,99653.81
2022-09-26T10:49:23.676Z,99646.66
2022-09-26T10:51:57.750Z,99646.72
2022-09-26T10:54:25.446Z,99643.41
2022-09-26T10:56:59.478Z,99638.78
2022-09-26T10:59:27.516Z,99638.19
2022-09-26T11:01:58.918Z,99643.34
2022-09-26T11:04:45.802Z,99634.50
2022-09-26T11:07:24.810Z,99634.00
2022-09-26T11:09:52.847Z,99635.19
2022-09-26T11:12:29.126Z,99627.88
2022-09-26T11:14:58.620Z,99634.03
2022-09-26T11:17:51.460Z,99624.44
2022-09-26T11:20:23.321Z,99626.97
2022-09-26T11:22:56.802Z,99633.06
2022-09-26T11:25:31.251Z,99617.22
2022-09-26T11:28:07.148Z,99611.78
2022-09-26T11:30:35.721Z,99613.59
2022-09-26T11:33:05.578Z,99609.59
2022-09-26T11:35:45.843Z,99597.66
2022-09-26T11:38:40.457Z,99597.38
2022-09-26T11:41:38.915Z,99591.34
2022-09-26T11:44:34.634Z,99594.13
2022-09-26T11:47:38.471Z,99581.66
2022-09-26T11:50:35.547Z,99586.78
2022-09-26T11:53:13.347Z,99567.53
2022-09-26T11:56:15.809Z,99584.03
2022-09-26T11:59:23.607Z,99570.38
2022-09-26T12:02:18.284Z,99573.31
2022-09-26T12:05:14.180Z,99563.38
2022-09-26T12:07:56.235Z,99566.94
2022-09-26T12:10:37.498Z,99562.41
2022-09-26T12:13:49.329Z,99562.84
2022-09-26T12:16:26.403Z,99552.34
2022-09-26T12:19:21.594Z,99545.50
2022-09-26T12:22:15.932Z,99534.63
2022-09-26T12:25:10.963Z,99530.69
2022-09-26T12:27:44.573Z,99523.44
2022-09-26T12:30:14.518Z,99527.25
2022-09-26T12:32:57.422Z,99518.59
2022-09-26T12:35:43.187Z,99526.38
2022-09-26T12:38:32.803Z,99519.59
2022-09-26T12:41:25.955Z,99518.84
2022-09-26T12:44:01.837Z,99517.91
2022-09-26T12:46:55.957Z,99514.97
2022-09-26T12:49:34.778Z,99507.97
2022-09-26T12:52:27.123Z,99496.38
2022-09-26T12:55:13.034Z,99500.88
2022-09-26T12:58:18.810Z,99487.53
2022-09-26T13:01:01.894Z,99488.72
2022-09-26T13:03:56.578Z,99483.28
2022-09-26T13:06:32.457Z,99488.94
2022-09-26T13:09:12.134Z,99484.84
2022-09-26T13:11:53.316Z,99481.22
2022-09-26T13:14:45.278Z,99480.69
2022-09-26T13:17:24.585Z,99491.94
2022-09-26T13:19:59.521Z,99479.09
2022-09-26T13:22:34.578Z,99484.47
2022-09-26T13:25:18.923Z,99486.50
2022-09-26T13:27:51.450Z,99474.22
2022-09-26T13:30:53.640Z,99483.38
2022-09-26T13:33:27.726Z,99474.31
2022-09-26T13:35:55.826Z,99468.78
2022-09-26T13:38:40.798Z,99471.38
2022-09-26T13:42:01.350Z,99465.66
2022-09-26T13:44:48.216Z,99466.41
2022-09-26T13:47:27.311Z,99458.13
2022-09-26T13:50:03.507Z,99455.56
2022-09-26T13:52:52.571Z,99454.16
2022-09-26T13:55:22.324Z,99449.69
2022-09-26T13:58:00.857Z,99455.84
2022-09-26T14:00:36.300Z,99438.16
2022-09-26T14:03:18.642Z,99435.09
2022-09-26T14:05:51.164Z,99427.00
2022-09-26T14:08:49.377Z,99428.13
2022-09-26T14:11:48.977Z,99418.19
2022-09-26T14:14:19.150Z,99412.97
2022-09-26T14:16:46.474Z,99409.44
2022-09-26T14:19:20.634Z,99407.31
2022-09-26T14:22:20.876Z,99405.31
2022-09-26T14:24:48.753Z,99402.91
2022-09-26T14:27:15.228Z,99400.72
2022-09-26T14:29:42.463Z,99397.50
2022-09-26T14:32:10.390Z,99399.31
2022-09-26T14:34:54.662Z,99400.13
2022-09-26T14:37:24.268Z,99395.03
2022-09-26T14:40:17.193Z,99397.91
2022-09-26T14:42:43.727Z,99384.97
2022-09-26T14:45:19.445Z,99386.56
2022-09-26T14:47:57.262Z,99372.41
2022-09-26T14:50:32.195Z,99376.88
2022-09-26T14:53:03.332Z,99373.88
2022-09-26T14:55:30.223Z,99364.75
2022-09-26T14:58:23.291Z,99366.69
2022-09-26T15:00:50.531Z,99358.78
2022-09-26T15:03:18.312Z,99365.25
2022-09-26T15:05:45.482Z,99361.81
2022-09-26T15:08:25.265Z,99356.59
2022-09-26T15:10:53.405Z,99359.09
2022-09-26T15:13:25.477Z,99349.97
2022-09-26T15:16:01.370Z,99350.66
2022-09-26T15:18:27.889Z,99348.75
2022-09-26T15:21:28.241Z,99345.69
2022-09-26T15:23:58.020Z,99348.25
2022-09-26T15:26:31.448Z,99344.56
2022-09-26T15:28:58.500Z,99344.09
2022-09-26T15:31:40.607Z,99345.31
2022-09-26T15:34:16.613Z,99336.97
2022-09-26T15:36:45.291Z,99344.69
2022-09-26T15:39:30.109Z,99344.16
2022-09-26T15:42:28.012Z,99334.97
2022-09-26T15:44:58.661Z,99333.78
2022-09-26T15:47:31.806Z,99336.94
2022-09-26T15:50:15.118Z,99342.63
2022-09-26T15:52:49.073Z,99334.75
2022-09-26T15:55:21.949Z,99334.66
2022-09-26T15:57:50.023Z,99334.81
2022-09-26T16:00:17.656Z,99322.28
2022-09-26T16:02:44.317Z,99326.06
2022-09-26T16:05:12.986Z,99333.44
2022-09-26T16:07:41.435Z,99328.28
2022-09-26T16:10:21.253Z,99319.41
2022-09-26T16:12:47.868Z,99318.66
2022-09-26T16:15:18.120Z,99320.22
2022-09-26T16:17:53.261Z,99321.16
2022-09-26T16:20:20.874Z,99314.91
2022-09-26T16:23:00.369Z,99308.00
2022-09-26T16:25:47.634Z,99302.34
2022-09-26T16:28:15.499Z,99301.75
2022-09-26T16:30:55.605Z,99305.09
2022-09-26T16:33:32.868Z,99306.03
2022-09-26T16:36:23.986Z,99302.25
2022-09-26T16:38:55.945Z,99298.22
2022-09-26T16:41:59.918Z,99297.63
2022-09-26T16:44:35.462Z,99297.66
2022-09-26T16:47:05.687Z,99290.38
2022-09-26T16:49:48.517Z,99295.94
2022-09-26T16:52:26.835Z,99290.03
2022-09-26T16:54:58.819Z,99297.63
2022-09-26T16:57:27.948Z,99291.53
2022-09-26T17:00:18.430Z,99297.00
2022-09-26T17:02:45.342Z,99289.91
2022-09-26T17:05:18.448Z,99292.09
2022-09-26T17:07:46.586Z,99295.47
2022-09-26T17:10:13.198Z,99290.31
2022-09-26T17:12:40.112Z,99286.25
2022-09-26T17:15:08.239Z,99291.53
2022-09-26T17:17:35.095Z,99285.31
2022-09-26T17:20:05.106Z,99289.53
2022-09-26T17:22:31.769Z,99283.59
2022-09-26T17:25:01.515Z,99287.19
2022-09-26T17:27:33.359Z,99274.47
2022-09-26T17:30:04.973Z,99281.88
2022-09-26T17:32:35.830Z,99285.25
2022-09-26T17:35:08.309Z,99288.63
2022-09-26T17:37:34.937Z,99276.25
2022-09-26T17:40:01.825Z,99278.13
2022-09-26T17:42:29.966Z,99282.94
2022-09-26T17:44:56.553Z,99280.78
2022-09-26T17:47:23.470Z,99275.28
2022-09-26T17:49:56.314Z,99272.22
2022-09-26T17:52:26.916Z,99268.84
2022-09-26T17:54:57.426Z,99276.50
2022-09-26T17:57:30.081Z,99266.06
2022-09-26T17:59:57.757Z,99260.91
2022-09-26T18:02:34.536Z,99258.09
2022-09-26T18:05:04.719Z,99261.50
2022-09-26T18:07:36.179Z,99262.97
2022-09-26T18:10:17.012Z,99256.84
2022-09-26T18:12:45.224Z,99260.19
2022-09-26T18:15:16.119Z,99252.25
2022-09-26T18:17:43.254Z,99263.06
2022-09-26T18:20:09.843Z,99254.78
2022-09-26T18:22:36.542Z,99256.00
2022-09-26T18:25:05.897Z,99250.44
2022-09-26T18:27:36.707Z,99253.94
2022-09-26T18:30:04.566Z,99259.41
2022-09-26T18:32:33.320Z,99254.97
2022-09-26T18:35:00.705Z,99252.91
2022-09-26T18:37:27.370Z,99255.13
2022-09-26T18:39:56.351Z,99241.84
2022-09-26T18:42:24.706Z,99246.03
2022-09-26T18:45:04.235Z,99250.91
2022-09-26T18:47:35.749Z,99243.13
2022-09-26T18:50:02.499Z,99242.19
2022-09-26T18:52:30.096Z,99239.03
2022-09-26T18:55:15.448Z,99242.25
2022-09-26T18:58:00.651Z,99239.63
2022-09-26T19:00:27.989Z,99239.63
2022-09-26T19:02:54.807Z,99227.75
2022-09-26T19:05:21.540Z,99233.88
2022-09-26T19:07:48.163Z,99227.53
2022-09-26T19:10:20.820Z,99229.88
2022-09-26T19:12:48.325Z,99229.53
2022-09-26T19:15:15.817Z,99236.47
2022-09-26T19:17:43.306Z,99228.16
2022-09-26T19:20:10.099Z,99226.66
2022-09-26T19:22:36.885Z,99222.78
2022-09-26T19:25:03.900Z,99222.72
2022-09-26T19:27:32.941Z,99220.91
2022-09-26T19:30:04.724Z,99220.94
2022-09-26T19:32:39.220Z,99211.56
2022-09-26T19:35:11.954Z,99218.19
2022-09-26T19:37:38.519Z,99213.06
2022-09-26T19:40:16.727Z,99213.16
2022-09-26T19:42:43.560Z,99213.84
2022-09-26T19:45:11.366Z,99217.19
2022-09-26T19:47:41.358Z,99208.75
2022-09-26T19:50:15.860Z,99205.81
2022-09-26T19:52:42.498Z,99204.59
2022-09-26T19:55:29.029Z,99205.28
2022-09-26T19:58:17.186Z,99209.59
2022-09-26T20:00:44.996Z,99204.38
2022-09-26T20:03:20.487Z,99202.50
2022-09-26T20:05:48.536Z,99202.59
2022-09-26T20:08:23.410Z,99202.50
2022-09-26T20:10:54.283Z,99204.59
2022-09-26T20:13:21.347Z,99198.06
2022-09-26T20:15:48.493Z,99194.09
2022-09-26T20:18:21.350Z,99194.56
2022-09-26T20:20:52.450Z,99186.34
2022-09-26T20:23:21.553Z,99189.34
2022-09-26T20:25:48.493Z,99186.22
2022-09-26T20:28:16.038Z,99182.84
2022-09-26T20:30:51.815Z,99178.97
2022-09-26T20:33:21.860Z,99174.59
2022-09-26T20:35:53.907Z,99184.16
2022-09-26T20:38:26.707Z,99178.09
2022-09-26T20:41:03.325Z,99173.75
2022-09-26T20:43:34.831Z,99170.31
2022-09-26T20:46:05.864Z,99164.78
2022-09-26T20:48:34.498Z,99153.72
2022-09-26T20:51:02.181Z,99157.38
2022-09-26T20:53:28.995Z,99155.78
2022-09-26T20:55:55.704Z,99157.66
2022-09-26T20:58:22.587Z,99155.78
2022-09-26T21:00:49.899Z,99155.94
2022-09-26T21:03:18.794Z,99151.78
2022-09-26T21:05:49.267Z,99149.09
2022-09-26T21:08:26.164Z,99142.50
2022-09-26T21:10:54.076Z,99139.13
2022-09-26T21:13:20.750Z,99138.53
2022-09-26T21:15:47.674Z,99135.06
2022-09-26T21:18:27.003Z,99139.59
2022-09-26T21:20:53.980Z,99136.72
2022-09-26T21:23:20.890Z,99127.00
2022-09-26T21:25:50.601Z,99131.34
2022-09-26T21:28:27.974Z,99122.69
2022-09-26T21:31:03.717Z,99123.19
2022-09-26T21:33:30.724Z,99121.38
2022-09-26T21:35:57.761Z,99118.44
2022-09-26T21:38:25.743Z,99121.06
2022-09-26T21:40:54.949Z,99125.72
2022-09-26T21:43:23.090Z,99116.56
2022-09-26T21:45:49.793Z,99115.84
2022-09-26T21:48:16.731Z,99107.16
2022-09-26T21:50:57.884Z,99105.66
2022-09-26T21:53:32.509Z,99098.38
2022-09-26T21:56:06.593Z,99098.84
2022-09-26T21:58:38.491Z,99103.88
2022-09-26T22:01:07.368Z,99091.88
2022-09-26T22:03:34.647Z,99098.50
2022-09-26T22:06:07.584Z,99094.81
2022-09-26T22:08:34.990Z,99089.59
2022-09-26T22:11:03.192Z,99088.06
2022-09-26T22:13:34.166Z,99093.38
2022-09-26T22:16:08.722Z,99082.94
2022-09-26T22:18:35.842Z,99074.38
2022-09-26T22:21:04.916Z,99073.97
2022-09-26T22:23:32.706Z,99071.28
2022-09-26T22:25:59.546Z,99057.03
2022-09-26T22:28:26.466Z,99057.56
2022-09-26T22:30:54.620Z,99054.53
2022-09-26T22:33:22.410Z,99058.34
2022-09-26T22:35:49.569Z,99056.88
2022-09-26T22:38:16.725Z,99057.53
2022-09-26T22:40:44.069Z,99049.06
2022-09-26T22:43:11.260Z,99046.66
2022-09-26T22:45:37.852Z,99043.81
2022-09-26T22:48:04.446Z,99050.16
2022-09-26T22:50:31.197Z,99042.53
2022-09-26T22:52:59.161Z,99038.47
2022-09-26T22:55:25.817Z,99023.63
2022-09-26T22:57:52.551Z,99023.91
2022-09-26T23:00:19.165Z,99024.63
2022-09-26T23:02:45.843Z,99024.19
2022-09-26T23:05:12.616Z,99017.00
2022-09-26T23:07:39.258Z,99021.03
2022-09-26T23:10:06.160Z,99009.22
2022-09-26T23:12:32.897Z,99009.97
2022-09-26T23:14:59.472Z,99004.78
2022-09-26T23:17:26.115Z,98997.44
2022-09-26T23:19:52.740Z,98997.00
2022-09-26T23:22:19.449Z,98991.38
2022-09-26T23:24:47.151Z,98988.84
2022-09-26T23:27:13.731Z,98988.81
2022-09-26T23:29:41.440Z,98985.44
2022-09-26T23:32:11.069Z,98980.94
2022-09-26T23:34:37.645Z,98974.75
2022-09-26T23:37:04.500Z,98976.09
2022-09-26T23:39:31.079Z,98968.78
2022-09-26T23:41:58.737Z,98967.59
2022-09-26T23:44:25.351Z,98964.19
2022-09-26T23:46:51.949Z,98962.44
2022-09-26T23:49:18.532Z,98963.09
2022-09-26T23:51:47.520Z,98956.78
2022-09-26T23:54:14.208Z,98953.63
2022-09-26T23:56:40.820Z,98949.22
2022-09-26T23:59:07.452Z,98952.22
